createdAt,value
2022-12-25T00:04:55.548Z,86.08
2022-12-25T00:09:57.564Z,86.49
2022-12-25T00:14:58.202Z,87.46
2022-12-25T00:19:58.859Z,86.44
2022-12-25T00:25:00.867Z,85.87
2022-12-25T00:30:01.782Z,85.11
2022-12-25T00:35:02.440Z,85.41
2022-12-25T00:40:04.815Z,84.50
2022-12-25T00:45:06.760Z,85.11
2022-12-25T00:50:08.658Z,86.12
2022-12-25T00:55:11.144Z,85.58
2022-12-25T01:00:12.930Z,85.81
2022-12-25T01:05:13.588Z,86.14
2022-12-25T01:10:24.642Z,85.98
2022-12-25T01:15:25.638Z,86.34
2022-12-25T01:20:26.358Z,86.58
2022-12-25T01:25:28.367Z,86.96
2022-12-25T01:30:29.073Z,87.37
2022-12-25T01:35:30.196Z,87.47
2022-12-25T01:40:34.869Z,87.40
2022-12-25T01:45:39.527Z,87.76
2022-12-25T01:50:44.635Z,87.50
2022-12-25T01:55:50.764Z,87.81
2022-12-25T02:00:53.001Z,87.74
2022-12-25T02:05:54.431Z,87.78
2022-12-25T02:10:56.602Z,87.65
2022-12-25T02:16:05.835Z,87.97
2022-12-25T02:21:36.317Z,87.67
2022-12-25T02:26:59.313Z,88.19
2022-12-25T02:32:06.696Z,88.44
2022-12-25T02:37:11.806Z,88.34
2022-12-25T02:42:17.662Z,87.86
2022-12-25T02:47:50.159Z,87.64
2022-12-25T02:53:11.316Z,87.60
2022-12-25T02:58:33.115Z,87.94
2022-12-25T03:03:58.820Z,87.79
2022-12-25T03:09:21.706Z,88.62
2022-12-25T03:14:39.975Z,88.10
2022-12-25T03:19:59.883Z,88.36
2022-12-25T03:25:18.781Z,88.71
2022-12-25T03:30:37.762Z,89.09
2022-12-25T03:35:48.211Z,88.49
2022-12-25T03:41:18.835Z,88.84
2022-12-25T03:46:39.609Z,88.86
2022-12-25T03:52:02.554Z,88.87
2022-12-25T03:57:20.934Z,88.93
2022-12-25T04:02:39.411Z,88.83
2022-12-25T04:07:59.053Z,88.82
2022-12-25T04:13:17.286Z,88.76
2022-12-25T04:18:35.429Z,88.26
2022-12-25T04:23:55.309Z,88.41
2022-12-25T04:29:13.877Z,88.43
2022-12-25T04:34:32.272Z,88.91
2022-12-25T04:39:34.281Z,89.08
2022-12-25T04:44:35.574Z,89.18
2022-12-25T04:49:36.224Z,89.06
2022-12-25T04:54:39.958Z,89.33
2022-12-25T04:59:40.604Z,89.22
2022-12-25T05:04:41.260Z,88.89
2022-12-25T05:09:43.296Z,89.02
2022-12-25T05:14:43.943Z,89.07
2022-12-25T05:19:44.633Z,88.81
2022-12-25T05:24:46.619Z,89.08
2022-12-25T05:29:47.277Z,89.01
2022-12-25T05:34:47.936Z,88.95
2022-12-25T05:39:49.930Z,88.93
2022-12-25T05:44:50.644Z,89.18
2022-12-25T05:49:51.278Z,89.18
2022-12-25T05:54:53.259Z,89.20
2022-12-25T05:59:53.889Z,89.34
2022-12-25T06:04:55.265Z,89.64
2022-12-25T06:09:57.280Z,89.66
2022-12-25T06:14:57.973Z,89.40
2022-12-25T06:19:58.630Z,89.72
2022-12-25T06:25:00.778Z,89.64
2022-12-25T06:30:01.485Z,89.61
2022-12-25T06:35:02.136Z,89.45
2022-12-25T06:40:04.490Z,89.30
2022-12-25T06:45:05.549Z,89.47
2022-12-25T06:50:07.729Z,89.62
2022-12-25T06:55:10.791Z,89.50
2022-12-25T07:00:12.777Z,89.59
2022-12-25T07:05:13.437Z,89.32
2022-12-25T07:10:19.067Z,89.32
2022-12-25T07:15:19.736Z,89.37
2022-12-25T07:20:20.460Z,89.40
2022-12-25T07:25:22.539Z,89.43
2022-12-25T07:30:23.189Z,89.15
2022-12-25T07:35:23.887Z,89.34
2022-12-25T07:40:25.885Z,89.19
2022-12-25T07:45:26.623Z,89.44
2022-12-25T07:50:27.296Z,88.94
2022-12-25T07:55:29.292Z,88.82
2022-12-25T08:00:32.742Z,89.43
2022-12-25T08:05:33.729Z,89.42
2022-12-25T08:10:35.725Z,88.80
2022-12-25T08:15:36.389Z,88.73
2022-12-25T08:20:37.334Z,87.13
2022-12-25T08:25:39.393Z,87.13
2022-12-25T08:30:40.238Z,87.04
2022-12-25T08:35:40.936Z,87.12
2022-12-25T08:40:43.008Z,87.49
2022-12-25T08:45:43.738Z,87.38
2022-12-25T08:50:46.356Z,87.01
2022-12-25T08:55:48.550Z,86.93
2022-12-25T09:00:50.360Z,86.39
2022-12-25T09:05:51.454Z,86.18
2022-12-25T09:10:53.528Z,85.91
2022-12-25T09:15:54.297Z,85.68
2022-12-25T09:21:01.960Z,85.10
2022-12-25T09:26:06.520Z,85.55
2022-12-25T09:31:07.512Z,84.66
2022-12-25T09:36:09.929Z,83.69
2022-12-25T09:41:18.175Z,84.37
2022-12-25T09:46:22.947Z,83.40
2022-12-25T09:51:25.312Z,82.34
2022-12-25T09:56:27.572Z,82.36
2022-12-25T10:01:38.651Z,82.63
2022-12-25T10:06:49.356Z,81.49
2022-12-25T10:12:02.922Z,81.61
2022-12-25T10:17:18.275Z,81.73
2022-12-25T10:22:27.956Z,81.51
2022-12-25T10:27:33.571Z,81.82
2022-12-25T10:32:34.995Z,82.80
2022-12-25T10:37:35.683Z,83.84
2022-12-25T10:42:44.791Z,82.56
2022-12-25T10:47:45.587Z,82.00
2022-12-25T10:53:00.421Z,82.80
2022-12-25T10:58:03.121Z,81.48
2022-12-25T11:03:04.538Z,79.81
2022-12-25T11:08:19.876Z,78.96
2022-12-25T11:13:25.176Z,78.16
2022-12-25T11:18:27.567Z,77.55
2022-12-25T11:23:30.786Z,76.50
2022-12-25T11:28:35.503Z,75.73
2022-12-25T11:33:39.831Z,75.63
2022-12-25T11:38:40.539Z,75.68
2022-12-25T11:43:48.589Z,75.86
2022-12-25T11:48:56.221Z,77.05
2022-12-25T11:54:01.677Z,76.73
2022-12-25T11:59:14.955Z,76.88
2022-12-25T12:04:29.086Z,77.03
2022-12-25T12:09:41.773Z,76.67
2022-12-25T12:14:55.592Z,77.33
2022-12-25T12:19:56.273Z,77.36
2022-12-25T12:25:02.179Z,77.44
2022-12-25T12:30:05.999Z,77.16
2022-12-25T12:35:16.254Z,76.78
2022-12-25T12:40:28.205Z,77.05
2022-12-25T12:45:33.720Z,76.31
2022-12-25T12:50:37.444Z,77.96
2022-12-25T12:55:38.163Z,76.68
2022-12-25T13:00:50.073Z,76.92
2022-12-25T13:05:57.094Z,77.29
2022-12-25T13:11:08.855Z,77.06
2022-12-25T13:16:18.089Z,77.47
2022-12-25T13:21:23.106Z,77.89
2022-12-25T13:26:23.987Z,78.49
2022-12-25T13:31:27.743Z,78.34
2022-12-25T13:36:31.059Z,78.69
2022-12-25T13:41:55.293Z,78.68
2022-12-25T13:46:57.530Z,79.53
2022-12-25T13:52:12.103Z,79.42
2022-12-25T13:57:13.957Z,79.54
2022-12-25T14:02:20.138Z,80.13
2022-12-25T14:07:24.106Z,80.44
2022-12-25T14:12:25.842Z,80.67
2022-12-25T14:17:28.204Z,80.91
2022-12-25T14:22:31.197Z,80.64
2022-12-25T14:27:31.954Z,80.47
2022-12-25T14:32:46.614Z,81.07
2022-12-25T14:37:48.703Z,81.82
2022-12-25T14:42:56.744Z,81.88
2022-12-25T14:48:00.962Z,82.70
2022-12-25T14:53:01.915Z,83.61
2022-12-25T14:58:05.578Z,83.51
2022-12-25T15:03:18.214Z,83.97
2022-12-25T15:08:24.690Z,83.65
2022-12-25T15:13:26.914Z,83.08
2022-12-25T15:18:33.063Z,82.99
2022-12-25T15:23:33.791Z,82.52
2022-12-25T15:28:34.455Z,82.11
2022-12-25T15:33:40.689Z,81.94
2022-12-25T15:38:44.819Z,81.71
2022-12-25T15:43:45.508Z,82.07
2022-12-25T15:48:47.529Z,81.84
2022-12-25T15:53:48.239Z,81.67
2022-12-25T15:58:49.872Z,82.03
2022-12-25T16:03:52.078Z,81.75
2022-12-25T16:08:52.776Z,81.38
2022-12-25T16:13:53.474Z,81.80
2022-12-25T16:18:55.509Z,81.87
2022-12-25T16:23:56.208Z,81.17
2022-12-25T16:28:57.187Z,81.30
2022-12-25T16:34:01.306Z,81.02
2022-12-25T16:39:02.408Z,80.80
2022-12-25T16:44:09.219Z,81.13
2022-12-25T16:49:11.635Z,80.99
2022-12-25T16:54:12.317Z,80.91
2022-12-25T16:59:13.117Z,80.97
2022-12-25T17:04:15.133Z,81.65
2022-12-25T17:09:15.810Z,82.75
2022-12-25T17:14:16.497Z,84.33
2022-12-25T17:19:20.786Z,85.35
2022-12-25T17:24:21.806Z,85.85
2022-12-25T17:29:23.098Z,85.92
2022-12-25T17:34:25.308Z,85.31
2022-12-25T17:39:26.284Z,85.56
2022-12-25T17:44:27.333Z,85.71
2022-12-25T17:49:29.376Z,85.81
2022-12-25T17:54:30.094Z,84.63
2022-12-25T17:59:30.759Z,84.62
2022-12-25T18:04:33.180Z,84.08
2022-12-25T18:09:33.821Z,83.95
2022-12-25T18:14:34.488Z,83.51
2022-12-25T18:19:36.475Z,84.03
2022-12-25T18:24:37.146Z,83.71
2022-12-25T18:29:37.858Z,83.27
2022-12-25T18:34:40.003Z,82.92
2022-12-25T18:39:40.738Z,83.08
2022-12-25T18:44:41.446Z,82.75
2022-12-25T18:49:43.600Z,81.51
2022-12-25T18:54:44.484Z,81.63
2022-12-25T18:59:46.941Z,81.55
2022-12-25T19:04:48.980Z,81.88
2022-12-25T19:09:49.995Z,81.56
2022-12-25T19:14:51.322Z,81.58
2022-12-25T19:19:54.974Z,81.03
2022-12-25T19:24:55.665Z,81.19
2022-12-25T19:29:56.419Z,81.30
2022-12-25T19:34:58.451Z,81.63
2022-12-25T19:39:59.154Z,81.26
2022-12-25T19:44:59.825Z,81.82
2022-12-25T19:50:03.331Z,81.37
2022-12-25T19:55:04.853Z,81.37
2022-12-25T20:00:06.642Z,81.63
2022-12-25T20:05:15.649Z,81.40
2022-12-25T20:10:16.661Z,82.01
2022-12-25T20:15:17.512Z,82.06
2022-12-25T20:20:19.716Z,81.83
2022-12-25T20:25:20.404Z,81.52
2022-12-25T20:30:21.215Z,81.11
2022-12-25T20:35:23.199Z,81.21
2022-12-25T20:40:23.854Z,81.03
2022-12-25T20:45:24.518Z,80.45
2022-12-25T20:50:27.029Z,80.16
2022-12-25T20:55:27.737Z,79.74
2022-12-25T21:00:28.735Z,78.71
2022-12-25T21:05:31.819Z,78.64
2022-12-25T21:10:32.583Z,78.78
2022-12-25T21:15:33.267Z,78.95
2022-12-25T21:20:35.291Z,78.70
2022-12-25T21:25:36.000Z,78.47
2022-12-25T21:30:36.957Z,78.76
2022-12-25T21:35:39.677Z,79.34
2022-12-25T21:40:40.984Z,78.99
2022-12-25T21:45:41.771Z,78.68
2022-12-25T21:51:01.564Z,78.88
2022-12-25T21:56:02.840Z,78.87
2022-12-25T22:01:04.471Z,79.07
2022-12-25T22:06:24.623Z,79.06
2022-12-25T22:11:42.945Z,78.57
2022-12-25T22:17:01.134Z,78.63
2022-12-25T22:22:03.222Z,78.87
2022-12-25T22:27:03.977Z,78.97
2022-12-25T22:32:05.191Z,79.00
2022-12-25T22:37:08.464Z,78.79
2022-12-25T22:42:09.187Z,78.34
2022-12-25T22:47:10.155Z,78.56
2022-12-25T22:52:12.203Z,77.85
2022-12-25T22:57:12.837Z,78.09
2022-12-25T23:02:13.689Z,78.06
2022-12-25T23:07:15.799Z,77.68
2022-12-25T23:12:30.570Z,77.63
2022-12-25T23:17:48.695Z,78.08
2022-12-25T23:23:08.195Z,77.96
2022-12-25T23:28:08.892Z,77.76
2022-12-25T23:33:12.535Z,78.17
2022-12-25T23:38:14.582Z,78.57
2022-12-25T23:43:15.288Z,77.49
2022-12-25T23:48:16.002Z,77.56
2022-12-25T23:53:17.982Z,77.25
2022-12-25T23:58:18.666Z,76.88
